createdAt,value
2022-09-26T00:00:06.675Z,34.30
2022-09-26T00:02:33.065Z,34.08
2022-09-26T00:04:59.400Z,32.92
2022-09-26T00:07:25.715Z,32.38
2022-09-26T00:09:52.073Z,28.70
2022-09-26T00:12:18.380Z,28.25
2022-09-26T00:14:44.693Z,27.70
2022-09-26T00:17:11.310Z,27.60
2022-09-26T00:19:37.793Z,25.50
2022-09-26T00:22:04.072Z,25.13
2022-09-26T00:24:31.268Z,25.35
2022-09-26T00:26:57.569Z,26.02
2022-09-26T00:29:23.999Z,25.30
2022-09-26T00:31:50.384Z,22.50
2022-09-26T00:34:17.820Z,18.98
2022-09-26T00:36:44.191Z,16.63
2022-09-26T00:39:12.362Z,13.35
2022-09-26T00:41:39.093Z,10.23
2022-09-26T00:44:25.372Z,9.27
2022-09-26T00:46:51.900Z,11.80
2022-09-26T00:49:24.042Z,14.52
2022-09-26T00:51:52.885Z,15.93
2022-09-26T00:54:22.555Z,17.88
2022-09-26T00:56:50.357Z,18.88
2022-09-26T00:59:22.897Z,20.85
2022-09-26T01:01:53.289Z,21.65
2022-09-26T01:04:19.877Z,22.40
2022-09-26T01:06:46.415Z,23.20
2022-09-26T01:09:14.199Z,24.05
2022-09-26T01:11:41.578Z,24.52
2022-09-26T01:14:09.681Z,25.17
2022-09-26T01:16:37.415Z,23.70
2022-09-26T01:19:06.388Z,21.42
2022-09-26T01:21:51.839Z,17.23
2022-09-26T01:24:18.116Z,14.35
2022-09-26T01:27:19.979Z,15.05
2022-09-26T01:30:04.677Z,16.63
2022-09-26T01:32:49.132Z,16.92
2022-09-26T01:35:21.910Z,17.58
2022-09-26T01:37:49.304Z,16.20
2022-09-26T01:40:26.028Z,16.30
2022-09-26T01:43:13.824Z,16.23
2022-09-26T01:45:49.180Z,15.65
2022-09-26T01:48:19.963Z,17.35
2022-09-26T01:50:50.678Z,18.58
2022-09-26T01:53:23.113Z,18.10
2022-09-26T01:55:57.697Z,18.23
2022-09-26T01:58:27.615Z,17.88
2022-09-26T02:00:55.756Z,18.50
2022-09-26T02:03:27.422Z,18.38
2022-09-26T02:06:03.238Z,18.50
2022-09-26T02:08:40.353Z,19.10
2022-09-26T02:11:09.416Z,18.30
2022-09-26T02:13:37.161Z,18.17
2022-09-26T02:16:12.781Z,18.70
2022-09-26T02:23:32.348Z,18.35
2022-09-26T02:26:00.076Z,18.05
2022-09-26T02:28:26.470Z,18.83
2022-09-26T02:31:01.358Z,18.52
2022-09-26T02:33:30.943Z,20.90
2022-09-26T02:35:58.324Z,19.58
2022-09-26T02:38:29.219Z,19.23
2022-09-26T02:41:13.925Z,21.45
2022-09-26T02:43:58.748Z,19.55
2022-09-26T02:46:38.322Z,21.67
2022-09-26T02:49:20.057Z,22.25
2022-09-26T02:51:54.440Z,22.67
2022-09-26T02:54:28.836Z,23.40
2022-09-26T02:57:09.041Z,23.70
2022-09-26T02:59:41.033Z,22.27
2022-09-26T03:02:15.638Z,22.60
2022-09-26T03:04:42.011Z,21.85
2022-09-26T03:07:11.706Z,21.20
2022-09-26T03:09:38.501Z,22.50
2022-09-26T03:12:06.212Z,20.50
2022-09-26T03:14:34.081Z,20.85
2022-09-26T03:17:01.261Z,19.83
2022-09-26T03:19:34.945Z,18.73
2022-09-26T03:22:02.577Z,18.67
2022-09-26T03:24:29.166Z,18.38
2022-09-26T03:26:55.874Z,18.60
2022-09-26T03:29:23.051Z,18.90
2022-09-26T03:31:50.463Z,18.83
2022-09-26T03:34:19.736Z,19.80
2022-09-26T03:36:46.055Z,18.58
2022-09-26T03:39:12.499Z,19.52
2022-09-26T03:41:42.210Z,18.98
2022-09-26T03:44:08.703Z,20.65
2022-09-26T03:46:39.583Z,20.00
2022-09-26T03:49:06.795Z,19.65
2022-09-26T03:51:33.210Z,20.08
2022-09-26T03:53:59.583Z,19.48
2022-09-26T03:56:27.043Z,20.85
2022-09-26T03:58:53.421Z,17.85
2022-09-26T04:01:21.287Z,18.70
2022-09-26T04:03:50.802Z,19.60
2022-09-26T04:06:20.093Z,19.65
2022-09-26T04:08:48.296Z,20.38
2022-09-26T04:11:15.556Z,23.90
2022-09-26T04:13:52.819Z,23.88
2022-09-26T04:16:20.462Z,25.17
2022-09-26T04:18:47.076Z,25.50
2022-09-26T04:21:14.238Z,24.33
2022-09-26T04:23:49.799Z,24.92
2022-09-26T04:26:22.887Z,23.77
2022-09-26T04:28:52.058Z,23.80
2022-09-26T04:31:18.467Z,23.83
2022-09-26T04:33:45.191Z,21.88
2022-09-26T04:36:12.731Z,22.73
2022-09-26T04:38:42.237Z,22.63
2022-09-26T04:41:15.603Z,23.55
2022-09-26T04:43:42.415Z,20.08
2022-09-26T04:46:10.078Z,19.83
2022-09-26T04:48:36.521Z,20.00
2022-09-26T04:51:07.199Z,19.52
2022-09-26T04:53:34.121Z,18.08
2022-09-26T04:56:00.891Z,17.77
2022-09-26T04:58:27.180Z,16.95
2022-09-26T05:00:53.775Z,16.48
2022-09-26T05:03:20.216Z,17.05
2022-09-26T05:05:50.061Z,18.02
2022-09-26T05:08:16.940Z,17.95
2022-09-26T05:10:43.582Z,17.25
2022-09-26T05:13:10.499Z,18.00
2022-09-26T05:15:39.987Z,17.63
2022-09-26T05:18:07.837Z,18.13
2022-09-26T05:20:38.212Z,18.25
2022-09-26T05:23:05.682Z,18.98
2022-09-26T05:25:55.538Z,20.17
2022-09-26T05:28:22.019Z,21.10
2022-09-26T05:30:50.314Z,21.33
2022-09-26T05:33:16.867Z,22.10
2022-09-26T05:35:43.224Z,21.55
2022-09-26T05:38:09.659Z,24.30
2022-09-26T05:40:54.738Z,22.63
2022-09-26T05:43:22.767Z,21.63
2022-09-26T05:45:49.257Z,21.90
2022-09-26T05:48:16.342Z,21.08
2022-09-26T05:50:44.040Z,20.42
2022-09-26T05:53:10.402Z,19.58
2022-09-26T05:55:37.815Z,19.38
2022-09-26T05:58:05.697Z,18.83
2022-09-26T06:00:32.015Z,16.65
2022-09-26T06:02:58.969Z,17.75
2022-09-26T06:05:25.645Z,17.70
2022-09-26T06:07:52.827Z,17.55
2022-09-26T06:10:22.022Z,16.85
2022-09-26T06:12:51.048Z,15.73
2022-09-26T06:15:17.915Z,15.40
2022-09-26T06:17:44.884Z,14.90
2022-09-26T06:20:11.189Z,12.82
2022-09-26T06:22:41.041Z,11.85
2022-09-26T06:25:08.294Z,11.35
2022-09-26T06:27:38.653Z,11.13
2022-09-26T06:30:06.412Z,10.02
2022-09-26T06:32:32.746Z,9.23
2022-09-26T06:34:59.250Z,9.13
2022-09-26T06:37:25.538Z,9.23
2022-09-26T06:39:54.689Z,9.23
2022-09-26T06:42:25.336Z,10.20
2022-09-26T06:44:51.906Z,10.02
2022-09-26T06:47:19.612Z,10.77
2022-09-26T06:49:46.485Z,10.93
2022-09-26T06:52:14.045Z,12.07
2022-09-26T06:54:40.375Z,12.23
2022-09-26T06:57:07.981Z,12.68
2022-09-26T06:59:36.811Z,13.90
2022-09-26T07:02:03.393Z,14.50
2022-09-26T07:04:30.502Z,13.40
2022-09-26T07:06:58.487Z,12.88
2022-09-26T07:09:25.778Z,10.60
2022-09-26T07:12:13.580Z,11.13
2022-09-26T07:14:38.687Z,10.30
2022-09-26T07:17:04.968Z,8.07
2022-09-26T07:19:31.315Z,7.80
2022-09-26T07:21:57.640Z,8.13
2022-09-26T07:24:23.974Z,7.57
2022-09-26T07:26:50.343Z,6.43
2022-09-26T07:29:16.682Z,7.50
2022-09-26T07:31:43.046Z,6.47
2022-09-26T07:34:10.799Z,4.03
2022-09-26T07:36:40.615Z,3.97
2022-09-26T07:39:06.972Z,4.53
2022-09-26T07:41:33.321Z,4.38
2022-09-26T07:47:04.891Z,4.10
2022-09-26T07:49:50.202Z,4.00
2022-09-26T07:52:17.749Z,4.47
2022-09-26T07:54:46.034Z,3.90
2022-09-26T07:57:12.567Z,3.85
2022-09-26T07:59:38.869Z,3.97
2022-09-26T08:02:05.267Z,3.53
2022-09-26T08:04:31.609Z,3.22
2022-09-26T08:06:59.473Z,2.53
2022-09-26T08:09:25.902Z,2.70
2022-09-26T08:11:52.328Z,2.90
2022-09-26T08:14:18.615Z,2.83
2022-09-26T08:16:44.922Z,2.85
2022-09-26T08:19:12.764Z,2.60
2022-09-26T08:21:39.262Z,2.42
2022-09-26T08:24:05.686Z,2.22
2022-09-26T08:26:32.173Z,2.08
2022-09-26T08:28:59.926Z,1.90
2022-09-26T08:31:26.797Z,1.98
2022-09-26T08:33:54.000Z,2.33
2022-09-26T08:36:20.903Z,2.40
2022-09-26T08:38:49.213Z,2.00
2022-09-26T08:41:38.753Z,2.30
2022-09-26T08:44:25.035Z,2.28
2022-09-26T08:47:03.031Z,2.80
2022-09-26T08:49:48.387Z,2.80
2022-09-26T08:52:23.740Z,2.60
2022-09-26T08:54:50.819Z,2.65
2022-09-26T08:57:37.397Z,2.60
2022-09-26T09:00:15.746Z,2.60
2022-09-26T09:02:49.114Z,2.92
2022-09-26T09:05:15.702Z,2.83
2022-09-26T09:07:42.002Z,2.13
2022-09-26T09:10:14.563Z,2.15
2022-09-26T09:12:47.101Z,1.88
2022-09-26T09:15:26.454Z,2.35
2022-09-26T09:18:02.903Z,2.00
2022-09-26T09:20:38.269Z,2.30
2022-09-26T09:23:13.169Z,1.90
2022-09-26T09:27:52.467Z,1.20
2022-09-26T09:29:01.984Z,1.35
2022-09-26T09:31:30.218Z,1.60
2022-09-26T09:33:59.639Z,1.27
2022-09-26T09:36:29.220Z,0.93
2022-09-26T09:38:57.734Z,1.15
2022-09-26T09:41:24.839Z,1.30
2022-09-26T09:43:56.168Z,1.08
2022-09-26T09:46:30.165Z,1.17
2022-09-26T09:48:57.975Z,1.48
2022-09-26T09:51:51.471Z,1.10
2022-09-26T09:54:23.965Z,1.25
2022-09-26T09:57:09.176Z,1.20
2022-09-26T09:59:44.921Z,1.38
2022-09-26T10:09:43.993Z,0.90
2022-09-26T10:12:16.849Z,1.15
2022-09-26T10:14:50.943Z,0.80
2022-09-26T10:17:20.264Z,0.80
2022-09-26T10:19:47.086Z,1.10
2022-09-26T10:22:24.090Z,1.10
2022-09-26T10:24:51.362Z,1.38
2022-09-26T10:27:23.390Z,1.17
2022-09-26T10:30:00.027Z,1.40
2022-09-26T10:32:26.889Z,1.10
2022-09-26T10:35:07.822Z,1.02
2022-09-26T10:37:36.393Z,1.40
2022-09-26T10:40:21.623Z,1.08
2022-09-26T10:42:47.979Z,0.90
2022-09-26T10:45:20.289Z,1.30
2022-09-26T10:47:48.494Z,1.00
2022-09-26T10:50:22.057Z,1.20
2022-09-26T10:52:49.731Z,1.50
2022-09-26T10:55:17.738Z,1.20
2022-09-26T10:57:46.967Z,1.25
2022-09-26T11:00:21.892Z,1.15
2022-09-26T11:02:53.147Z,0.90
2022-09-26T11:05:38.816Z,0.85
2022-09-26T11:08:06.575Z,1.23
2022-09-26T11:10:34.048Z,1.10
2022-09-26T11:13:40.510Z,1.10
2022-09-26T11:16:13.028Z,1.42
2022-09-26T11:18:45.694Z,0.98
2022-09-26T11:30:42.762Z,1.20
2022-09-26T11:33:12.661Z,1.10
2022-09-26T11:35:51.660Z,0.80
2022-09-26T11:38:41.860Z,0.93
2022-09-26T11:41:16.531Z,0.82
2022-09-26T11:43:51.880Z,1.00
2022-09-26T11:46:31.132Z,0.90
2022-09-26T11:49:00.896Z,0.80
2022-09-26T11:51:43.782Z,1.00
2022-09-26T11:54:28.793Z,0.88
2022-09-26T11:57:04.921Z,0.98
2022-09-26T11:59:42.527Z,1.20
2022-09-26T12:02:31.189Z,1.10
2022-09-26T12:05:00.737Z,1.08
2022-09-26T12:07:33.071Z,1.08
2022-09-26T12:10:14.638Z,1.23
2022-09-26T12:13:01.201Z,1.00
2022-09-26T12:15:33.253Z,1.00
2022-09-26T12:18:17.643Z,0.90
2022-09-26T12:20:56.221Z,0.68
2022-09-26T12:23:44.115Z,0.60
2022-09-26T12:26:14.239Z,0.60
2022-09-26T12:28:55.849Z,0.70
2022-09-26T12:31:28.212Z,0.60
2022-09-26T12:34:23.715Z,1.00
2022-09-26T12:36:50.860Z,0.90
2022-09-26T12:39:37.470Z,0.70
2022-09-26T12:42:15.417Z,0.70
2022-09-26T12:44:44.468Z,0.88
2022-09-26T12:47:22.364Z,1.05
2022-09-26T12:49:55.076Z,0.70
2022-09-26T12:52:27.733Z,0.77
2022-09-26T12:55:03.151Z,0.75
2022-09-26T12:57:29.488Z,0.90
2022-09-26T12:59:58.957Z,0.80
2022-09-26T13:02:33.568Z,0.70
2022-09-26T13:05:18.813Z,0.70
2022-09-26T13:07:57.317Z,0.80
2022-09-26T13:10:52.758Z,0.93
2022-09-26T13:13:24.074Z,1.02
2022-09-26T13:16:08.112Z,0.60
2022-09-26T13:18:38.088Z,0.60
2022-09-26T13:21:09.034Z,0.70
2022-09-26T13:23:48.671Z,1.52
2022-09-26T13:26:17.275Z,0.80
2022-09-26T13:29:12.841Z,0.70
2022-09-26T13:31:40.254Z,0.70
2022-09-26T13:34:12.932Z,0.80
2022-09-26T13:36:41.883Z,0.90
2022-09-26T13:39:26.936Z,0.77
2022-09-26T13:41:56.401Z,0.70
2022-09-26T13:44:29.047Z,0.90
2022-09-26T13:47:12.466Z,0.88
2022-09-26T13:49:54.306Z,0.80
2022-09-26T13:52:27.635Z,1.10
2022-09-26T13:55:20.068Z,0.90
2022-09-26T13:58:04.003Z,0.70
2022-09-26T14:00:30.495Z,0.90
2022-09-26T14:03:19.202Z,0.90
2022-09-26T14:05:50.868Z,0.75
2022-09-26T14:08:51.291Z,0.80
2022-09-26T14:11:30.653Z,0.80
2022-09-26T14:14:18.924Z,0.80
2022-09-26T14:16:46.058Z,1.00
2022-09-26T14:19:31.136Z,0.93
2022-09-26T14:22:02.795Z,0.90
2022-09-26T14:24:42.057Z,0.90
2022-09-26T14:27:11.264Z,0.85
2022-09-26T14:29:42.335Z,0.95
2022-09-26T14:32:10.146Z,3.55
2022-09-26T14:34:46.967Z,1.15
2022-09-26T14:37:25.425Z,2.05
2022-09-26T14:39:53.177Z,1.55
2022-09-26T14:42:23.569Z,1.23
2022-09-26T14:44:55.793Z,0.82
2022-09-26T14:47:22.455Z,0.88
2022-09-26T14:49:53.253Z,0.80
2022-09-26T14:52:20.415Z,0.93
2022-09-26T14:54:47.140Z,0.90
2022-09-26T14:57:21.076Z,0.85
2022-09-26T14:59:47.879Z,1.00
2022-09-26T15:02:14.888Z,1.00
2022-09-26T15:04:43.720Z,0.80
2022-09-26T15:07:18.902Z,0.93
2022-09-26T15:09:49.101Z,0.75
2022-09-26T15:12:17.996Z,0.50
2022-09-26T15:14:49.913Z,0.70
2022-09-26T15:17:24.917Z,1.00
2022-09-26T15:19:53.172Z,0.90
2022-09-26T15:22:20.713Z,0.77
2022-09-26T15:24:47.140Z,0.70
2022-09-26T15:27:27.051Z,0.80
2022-09-26T15:29:57.953Z,0.70
2022-09-26T15:32:28.924Z,0.70
2022-09-26T15:34:55.768Z,0.98
2022-09-26T15:37:30.007Z,0.85
2022-09-26T15:39:59.360Z,0.82
2022-09-26T15:42:44.498Z,0.95
2022-09-26T15:45:16.806Z,1.25
2022-09-26T15:47:43.279Z,0.90
2022-09-26T15:50:17.396Z,1.02
2022-09-26T15:52:46.865Z,1.00
2022-09-26T15:55:19.231Z,1.00
2022-09-26T15:57:47.153Z,1.10
2022-09-26T16:00:14.949Z,0.90
2022-09-26T16:02:42.173Z,1.02
2022-09-26T16:05:12.711Z,1.00
2022-09-26T16:07:41.347Z,0.90
2022-09-26T16:10:19.817Z,1.10
2022-09-26T16:12:47.710Z,1.13
2022-09-26T16:15:19.151Z,1.10
2022-09-26T16:17:53.118Z,1.20
2022-09-26T16:20:19.838Z,0.90
2022-09-26T16:22:49.311Z,1.08
2022-09-26T16:25:15.744Z,1.27
2022-09-26T16:27:42.688Z,1.30
2022-09-26T16:30:23.657Z,1.20
2022-09-26T16:32:50.843Z,1.20
2022-09-26T16:35:19.644Z,1.40
2022-09-26T16:38:07.411Z,1.17
2022-09-26T16:40:35.010Z,1.20
2022-09-26T16:43:08.081Z,1.17
2022-09-26T16:45:34.410Z,1.40
2022-09-26T16:48:00.960Z,1.20
2022-09-26T16:50:28.880Z,1.35
2022-09-26T16:52:55.389Z,1.23
2022-09-26T16:55:22.793Z,1.42
2022-09-26T16:57:49.139Z,1.38
2022-09-26T17:00:35.872Z,1.20
2022-09-26T17:03:03.219Z,1.35
2022-09-26T17:05:29.716Z,1.23
2022-09-26T17:07:56.174Z,1.55
2022-09-26T17:10:24.441Z,1.45
2022-09-26T17:12:52.901Z,1.50
2022-09-26T17:15:26.050Z,1.60
2022-09-26T17:17:53.810Z,1.48
2022-09-26T17:20:20.851Z,1.30
2022-09-26T17:22:47.207Z,1.40
2022-09-26T17:25:13.717Z,1.27
2022-09-26T17:27:41.036Z,1.50
2022-09-26T17:30:10.898Z,1.45
2022-09-26T17:32:37.773Z,1.52
2022-09-26T17:35:08.328Z,1.33
2022-09-26T17:37:34.661Z,1.30
2022-09-26T17:40:01.127Z,1.65
2022-09-26T17:42:27.577Z,1.58
2022-09-26T17:44:54.611Z,1.77
2022-09-26T17:47:21.363Z,1.65
2022-09-26T17:49:48.974Z,1.85
2022-09-26T17:52:24.511Z,2.30
2022-09-26T17:54:53.798Z,2.05
2022-09-26T17:57:20.752Z,2.40
2022-09-26T17:59:47.174Z,2.10
2022-09-26T18:02:19.149Z,2.25
2022-09-26T18:04:46.269Z,2.22
2022-09-26T18:07:16.252Z,2.28
2022-09-26T18:09:43.211Z,2.20
2022-09-26T18:12:13.643Z,2.28
2022-09-26T18:14:41.797Z,2.50
2022-09-26T18:17:15.157Z,3.00
2022-09-26T18:19:41.661Z,2.40
2022-09-26T18:22:14.500Z,2.67
2022-09-26T18:24:40.906Z,2.47
2022-09-26T18:27:10.731Z,2.88
2022-09-26T18:29:39.034Z,2.40
2022-09-26T18:32:06.485Z,2.78
2022-09-26T18:34:32.915Z,2.22
2022-09-26T18:37:00.492Z,2.00
2022-09-26T18:39:27.099Z,2.40
2022-09-26T18:41:56.377Z,2.10
2022-09-26T18:44:23.933Z,2.03
2022-09-26T18:46:50.352Z,1.88
2022-09-26T18:49:17.392Z,1.73
2022-09-26T18:51:45.210Z,1.73
2022-09-26T18:54:16.429Z,1.40
2022-09-26T18:57:01.935Z,1.55
2022-09-26T18:59:31.029Z,1.50
2022-09-26T19:01:59.692Z,1.42
2022-09-26T19:04:26.361Z,1.52
2022-09-26T19:06:58.920Z,1.30
2022-09-26T19:09:27.090Z,1.17
2022-09-26T19:11:53.446Z,1.27
2022-09-26T19:14:19.873Z,1.30
2022-09-26T19:16:47.408Z,1.27
2022-09-26T19:19:13.936Z,1.30
2022-09-26T19:21:47.420Z,1.30
2022-09-26T19:24:20.959Z,1.48
2022-09-26T19:26:49.721Z,2.30
2022-09-26T19:29:18.380Z,1.60
2022-09-26T19:31:44.827Z,1.60
2022-09-26T19:34:15.050Z,1.60
2022-09-26T19:36:41.614Z,1.17
2022-09-26T19:39:12.805Z,1.67
2022-09-26T19:41:39.100Z,1.10
2022-09-26T19:44:05.739Z,1.00
2022-09-26T19:46:32.175Z,1.60
2022-09-26T19:48:58.897Z,1.20
2022-09-26T19:51:25.270Z,1.00
2022-09-26T19:53:51.588Z,1.30
2022-09-26T19:56:18.360Z,1.00
2022-09-26T19:58:53.932Z,1.13
2022-09-26T20:01:22.798Z,1.00
2022-09-26T20:03:49.728Z,1.30
2022-09-26T20:06:21.117Z,1.00
2022-09-26T20:08:53.754Z,1.15
2022-09-26T20:11:22.368Z,1.00
2022-09-26T20:14:07.820Z,1.23
2022-09-26T20:16:38.536Z,1.20
2022-09-26T20:19:05.431Z,1.30
2022-09-26T20:21:32.393Z,1.30
2022-09-26T20:24:00.409Z,1.15
2022-09-26T20:26:29.510Z,1.10
2022-09-26T20:28:56.686Z,1.15
2022-09-26T20:31:24.703Z,1.30
2022-09-26T20:33:51.476Z,1.10
2022-09-26T20:36:26.847Z,1.10
2022-09-26T20:38:55.568Z,1.35
2022-09-26T20:41:29.410Z,1.20
2022-09-26T20:44:01.856Z,1.00
2022-09-26T20:46:31.486Z,1.25
2022-09-26T20:48:58.089Z,1.50
2022-09-26T20:51:27.290Z,1.40
2022-09-26T20:53:53.843Z,1.00
2022-09-26T20:56:21.361Z,1.00
2022-09-26T20:58:48.011Z,1.05
2022-09-26T21:01:15.526Z,1.02
2022-09-26T21:03:49.422Z,1.08
2022-09-26T21:06:20.744Z,0.98
2022-09-26T21:08:47.945Z,0.90
2022-09-26T21:11:15.358Z,0.90
2022-09-26T21:13:42.355Z,1.15
2022-09-26T21:16:13.376Z,1.00
2022-09-26T21:18:40.088Z,1.17
2022-09-26T21:21:08.055Z,1.20
2022-09-26T21:23:42.001Z,1.10
2022-09-26T21:26:18.908Z,1.05
2022-09-26T21:28:45.306Z,1.02
2022-09-26T21:31:18.147Z,0.90
2022-09-26T21:33:45.184Z,0.95
2022-09-26T21:36:11.666Z,1.17
2022-09-26T21:38:38.067Z,0.90
2022-09-26T21:41:04.989Z,0.98
2022-09-26T21:43:33.149Z,1.27
2022-09-26T21:45:59.576Z,0.85
2022-09-26T21:48:27.111Z,0.90
2022-09-26T21:50:58.227Z,1.05
2022-09-26T21:53:31.563Z,0.90
2022-09-26T21:56:03.792Z,0.80
2022-09-26T22:03:26.204Z,0.85
2022-09-26T22:05:52.564Z,0.80
2022-09-26T22:08:19.118Z,0.88
2022-09-26T22:10:45.457Z,0.80
2022-09-26T22:13:11.818Z,1.10
2022-09-26T22:15:38.435Z,1.30
2022-09-26T22:18:04.820Z,1.00
2022-09-26T22:20:31.218Z,0.88
2022-09-26T22:22:57.779Z,1.00
2022-09-26T22:25:24.093Z,1.20
2022-09-26T22:27:50.656Z,1.23
2022-09-26T22:30:17.022Z,1.60
2022-09-26T22:32:43.356Z,1.50
2022-09-26T22:35:09.880Z,1.30
2022-09-26T22:37:36.280Z,1.15
2022-09-26T22:40:02.918Z,1.50
2022-09-26T22:42:29.238Z,1.50
2022-09-26T22:44:55.616Z,1.58
2022-09-26T22:47:22.377Z,1.60
2022-09-26T22:49:49.655Z,1.45
2022-09-26T22:52:16.066Z,1.70
2022-09-26T22:54:42.466Z,1.85
2022-09-26T22:57:08.941Z,1.80
2022-09-26T22:59:35.313Z,1.80
2022-09-26T23:02:01.775Z,1.67
2022-09-26T23:04:46.828Z,1.63
2022-09-26T23:07:14.116Z,2.03
2022-09-26T23:09:40.585Z,1.90
2022-09-26T23:12:07.666Z,1.98
2022-09-26T23:14:34.483Z,2.08
2022-09-26T23:17:00.955Z,1.60
2022-09-26T23:19:27.413Z,1.50
2022-09-26T23:21:53.948Z,1.70
2022-09-26T23:24:20.462Z,1.63
2022-09-26T23:26:46.842Z,1.40
2022-09-26T23:29:13.195Z,1.83
2022-09-26T23:31:39.632Z,1.40
2022-09-26T23:34:06.003Z,1.48
2022-09-26T23:36:32.484Z,1.40
2022-09-26T23:38:59.255Z,1.60
2022-09-26T23:41:25.677Z,1.33
2022-09-26T23:43:52.032Z,1.30
2022-09-26T23:46:18.557Z,1.48
2022-09-26T23:48:45.821Z,1.20
2022-09-26T23:51:12.163Z,1.30
2022-09-26T23:53:38.604Z,1.42
2022-09-26T23:56:09.117Z,1.67
2022-09-26T23:58:35.956Z,1.20
